Mtm Rotterdam — VRIV7 — position and weather

sailwx.info

Track history (hours):
 
Tides and Currents Weather Stations Pressure Air Temp Water Temp Dewpoint Dewpoint Depression Visibility Wind Speed Wind Dir Waves Ship Positions

Mtm Rotterdam

Last reported at 2018-Jul-08 23:42 UTC. Time now 2018-Jul-22 18:09 UTC.
Position N 31°22' E 032°19'.
Warning: this ship's position is 13 days out of date.

Length 145 m; draft 10.1 m.

Type: Ship (hazmat cat C). MMSI: 477950600.

Date/timePositionNaut miles runAvg speedWind from/ knotsBaromVisibWave heightAir tempDewpointWater temp
2018-Jul-08 23:42N 31°22' E 032°19'0 0.0
2018-Jul-08 23:30N 31°22' E 032°19'0 0.0
2018-Jul-08 22:54N 31°22' E 032°19'0 0.0
2018-Jul-08 15:45N 31°22' E 032°19'0 0.0
2018-Jul-08 15:30N 31°22' E 032°19'0 0.0
2018-Jul-08 14:15N 31°22' E 032°19'0 0.0
2018-Jul-08 13:54N 31°22' E 032°19'0 0.0
2018-Jul-08 13:30N 31°22' E 032°19'0 0.0
2018-Jul-08 13:00N 31°22' E 032°19'1 1.1
2018-Jul-08 12:30N 31°22' E 032°20'4 7.4
2018-Jul-08 12:00N 31°25' E 032°20'3412.1
2018-Jul-08 09:13N 31°49' E 031°52'  
2018-Jul-05 18:04N 36°04' E 015°15'114.0
2018-Jul-05 18:00N 36°04' E 015°14'713.9
2018-Jul-05 17:30N 36°06' E 015°05'713.8
2018-Jul-05 17:00N 36°08' E 014°57'813.9
2018-Jul-05 16:24N 36°10' E 014°47'614.3
2018-Jul-05 16:00N 36°12' E 014°40'714.4
2018-Jul-05 15:30N 36°14' E 014°32'714.3
2018-Jul-05 15:00N 36°17' E 014°24'714.4
2018-Jul-05 14:30N 36°21' E 014°16'1414.3
2018-Jul-05 13:29N 36°29' E 014°01'714.3
2018-Jul-05 13:00N 36°31' E 013°53'714.3
2018-Jul-05 12:30N 36°34' E 013°45'714.1
2018-Jul-05 12:00N 36°38' E 013°37'713.6
2018-Jul-05 11:30N 36°41' E 013°30'713.4
2018-Jul-05 11:00N 36°44' E 013°22'713.7
2018-Jul-05 10:30N 36°47' E 013°15'713.9
2018-Jul-05 10:00N 36°51' E 013°07'713.9
2018-Jul-05 09:30N 36°54' E 012°60'714.0
2018-Jul-05 09:00N 36°57' E 012°52'713.9
2018-Jul-05 08:30N 37°00' E 012°44'713.9
2018-Jul-05 07:59N 37°04' E 012°36'35013.5
2018-Jul-04 05:57N 37°50' E 005°19'613.6
2018-Jul-04 05:29N 37°50' E 005°11'3013.6
2018-Jul-04 03:19N 37°49' E 004°34'1013.6
2018-Jul-04 02:36N 37°49' E 004°21'213.7
2018-Jul-04 02:28N 37°49' E 004°19'714.0
2018-Jul-04 02:00N 37°49' E 004°11'714.0
2018-Jul-04 01:30N 37°49' E 004°02'714.0
2018-Jul-04 01:00N 37°47' E 003°53'1213.9
2018-Jul-04 00:09N 37°43' E 003°39'213.7
2018-Jul-03 23:59N 37°42' E 003°36'613.4
2018-Jul-03 23:30N 37°40' E 003°29'712.8
2018-Jul-03 22:59N 37°38' E 003°21'1012.8
2018-Jul-03 22:11N 37°35' E 003°09'1913.3
2018-Jul-03 20:46N 37°29' E 002°46'413.9
2018-Jul-03 20:30N 37°28' E 002°42'714.0
2018-Jul-03 20:00N 37°25' E 002°33'714.1
2018-Jul-03 19:30N 37°23' E 002°25'714.3
2018-Jul-03 19:01N 37°20' E 002°17'714.2
2018-Jul-03 18:30N 37°18' E 002°08'714.1
2018-Jul-03 18:01N 37°16' E 002°00'814.2
2018-Jul-03 17:28N 37°13' E 001°51'714.2
2018-Jul-03 17:00N 37°11' E 001°43'714.0
2018-Jul-03 16:30N 37°09' E 001°35'1814.1
2018-Jul-03 15:16N 37°03' E 001°14'414.1
2018-Jul-03 15:00N 37°01' E 001°10'814.0
2018-Jul-03 14:25N 36°59' E 001°00'614.0
2018-Jul-03 14:00N 36°57' E 000°53'813.7
2018-Jul-03 13:25N 36°54' E 000°44'613.6
2018-Jul-03 12:57N 36°52' E 000°37'613.8
2018-Jul-03 12:30N 36°50' E 000°29'713.9
2018-Jul-03 11:59N 36°47' E 000°21'714.0
2018-Jul-03 11:30N 36°45' E 000°13'714.3
2018-Jul-03 10:59N 36°43' E 000°04'714.3
2018-Jul-03 10:28N 36°41' W 000°05'714.1
2018-Jul-03 09:57N 36°39' W 000°14'2014.0
2018-Jul-03 08:30N 36°31' W 000°37'713.9
2018-Jul-03 08:00N 36°28' W 000°45'3514.2
2018-Jul-03 05:30N 36°17' W 001°27'17415.3
2018-Jul-02 18:06N 36°02' W 005°01'316.7
2018-Jul-02 17:57N 36°02' W 005°04'716.3
2018-Jul-02 17:30N 36°01' W 005°13'713.1
2018-Jul-02 17:00N 36°03' W 005°21'3 0.3
2018-Jul-02 07:33N 36°06' W 005°22'1 5.6
2018-Jul-02 07:28N 36°06' W 005°22'3 4.5
2018-Jul-02 06:51N 36°03' W 005°20'3 9.4
2018-Jul-02 06:30N 36°01' W 005°22'611.9
2018-Jul-02 06:00N 35°58' W 005°28'911.9
2018-Jul-02 05:17N 35°55' W 005°39'  
Track history (hours):
 
Tides and Currents Weather Stations Pressure Air Temp Water Temp Dewpoint Dewpoint Depression Visibility Wind Speed Wind Dir Waves Ship Positions

Mtm Rotterdam

Last reported at 2018-Jul-08 23:42 UTC. Time now 2018-Jul-22 18:09 UTC.
Position N 31°22' E 032°19'.
Warning: this ship's position is 13 days out of date.

Length 145 m; draft 10.1 m.

Type: Ship (hazmat cat C). MMSI: 477950600.

Date/timePositionNaut miles runAvg speedWind from/ knotsBaromVisibWave heightAir tempDewpointWater temp
2018-Jul-08 23:42N 31°22' E 032°19'0 0.0
2018-Jul-08 23:30N 31°22' E 032°19'0 0.0
2018-Jul-08 22:54N 31°22' E 032°19'0 0.0
2018-Jul-08 15:45N 31°22' E 032°19'0 0.0
2018-Jul-08 15:30N 31°22' E 032°19'0 0.0
2018-Jul-08 14:15N 31°22' E 032°19'0 0.0
2018-Jul-08 13:54N 31°22' E 032°19'0 0.0
2018-Jul-08 13:30N 31°22' E 032°19'0 0.0
2018-Jul-08 13:00N 31°22' E 032°19'1 1.1
2018-Jul-08 12:30N 31°22' E 032°20'4 7.4
2018-Jul-08 12:00N 31°25' E 032°20'3412.1
2018-Jul-08 09:13N 31°49' E 031°52'  
2018-Jul-05 18:04N 36°04' E 015°15'114.0
2018-Jul-05 18:00N 36°04' E 015°14'713.9
2018-Jul-05 17:30N 36°06' E 015°05'713.8
2018-Jul-05 17:00N 36°08' E 014°57'813.9
2018-Jul-05 16:24N 36°10' E 014°47'614.3
2018-Jul-05 16:00N 36°12' E 014°40'714.4
2018-Jul-05 15:30N 36°14' E 014°32'714.3
2018-Jul-05 15:00N 36°17' E 014°24'714.4
2018-Jul-05 14:30N 36°21' E 014°16'1414.3
2018-Jul-05 13:29N 36°29' E 014°01'714.3
2018-Jul-05 13:00N 36°31' E 013°53'714.3
2018-Jul-05 12:30N 36°34' E 013°45'714.1
2018-Jul-05 12:00N 36°38' E 013°37'713.6
2018-Jul-05 11:30N 36°41' E 013°30'713.4
2018-Jul-05 11:00N 36°44' E 013°22'713.7
2018-Jul-05 10:30N 36°47' E 013°15'713.9
2018-Jul-05 10:00N 36°51' E 013°07'713.9
2018-Jul-05 09:30N 36°54' E 012°60'714.0
2018-Jul-05 09:00N 36°57' E 012°52'713.9
2018-Jul-05 08:30N 37°00' E 012°44'713.9
2018-Jul-05 07:59N 37°04' E 012°36'35013.5
2018-Jul-04 05:57N 37°50' E 005°19'613.6
2018-Jul-04 05:29N 37°50' E 005°11'3013.6
2018-Jul-04 03:19N 37°49' E 004°34'1013.6
2018-Jul-04 02:36N 37°49' E 004°21'213.7
2018-Jul-04 02:28N 37°49' E 004°19'714.0
2018-Jul-04 02:00N 37°49' E 004°11'714.0
2018-Jul-04 01:30N 37°49' E 004°02'714.0
2018-Jul-04 01:00N 37°47' E 003°53'1213.9
2018-Jul-04 00:09N 37°43' E 003°39'213.7
2018-Jul-03 23:59N 37°42' E 003°36'613.4
2018-Jul-03 23:30N 37°40' E 003°29'712.8
2018-Jul-03 22:59N 37°38' E 003°21'1012.8
2018-Jul-03 22:11N 37°35' E 003°09'1913.3
2018-Jul-03 20:46N 37°29' E 002°46'413.9
2018-Jul-03 20:30N 37°28' E 002°42'714.0
2018-Jul-03 20:00N 37°25' E 002°33'714.1
2018-Jul-03 19:30N 37°23' E 002°25'714.3
2018-Jul-03 19:01N 37°20' E 002°17'714.2
2018-Jul-03 18:30N 37°18' E 002°08'714.1
2018-Jul-03 18:01N 37°16' E 002°00'814.2
2018-Jul-03 17:28N 37°13' E 001°51'714.2
2018-Jul-03 17:00N 37°11' E 001°43'714.0
2018-Jul-03 16:30N 37°09' E 001°35'1814.1
2018-Jul-03 15:16N 37°03' E 001°14'414.1
2018-Jul-03 15:00N 37°01' E 001°10'814.0
2018-Jul-03 14:25N 36°59' E 001°00'614.0
2018-Jul-03 14:00N 36°57' E 000°53'813.7
2018-Jul-03 13:25N 36°54' E 000°44'613.6
2018-Jul-03 12:57N 36°52' E 000°37'613.8
2018-Jul-03 12:30N 36°50' E 000°29'713.9
2018-Jul-03 11:59N 36°47' E 000°21'714.0
2018-Jul-03 11:30N 36°45' E 000°13'714.3
2018-Jul-03 10:59N 36°43' E 000°04'714.3
2018-Jul-03 10:28N 36°41' W 000°05'714.1
2018-Jul-03 09:57N 36°39' W 000°14'2014.0
2018-Jul-03 08:30N 36°31' W 000°37'713.9
2018-Jul-03 08:00N 36°28' W 000°45'3514.2
2018-Jul-03 05:30N 36°17' W 001°27'17415.3
2018-Jul-02 18:06N 36°02' W 005°01'316.7
2018-Jul-02 17:57N 36°02' W 005°04'716.3
2018-Jul-02 17:30N 36°01' W 005°13'713.1
2018-Jul-02 17:00N 36°03' W 005°21'3 0.3
2018-Jul-02 07:33N 36°06' W 005°22'1 5.6
2018-Jul-02 07:28N 36°06' W 005°22'3 4.5
2018-Jul-02 06:51N 36°03' W 005°20'3 9.4
2018-Jul-02 06:30N 36°01' W 005°22'611.9
2018-Jul-02 06:00N 35°58' W 005°28'911.9
2018-Jul-02 05:17N 35°55' W 005°39'  

Dump ship's entire track history